Time;durP1;ratioP1;P1;durP2;ratioP2;P2;SDS_P1;SDS_P2;PMS_P1;PMS_P2;Temp;Humidity;BMP_temperature;BMP_pressure;BME280_temperature;BME280_humidity;BME280_pressure;Samples;Min_cycle;Max_cycle;Signal;HPM_P1;HPM_P2
2023/06/12 00:01:17;;;;;;;7.07;2.75;;;20.70;90.10;;;;;;5057643;28;20484;-67
2023/06/12 00:03:43;;;;;;;7.15;2.60;;;20.70;90.10;;;;;;5056346;28;20464;-66
2023/06/12 00:06:10;;;;;;;6.78;2.38;;;20.60;90.20;;;;;;5055616;28;20473;-66
2023/06/12 00:08:41;;;;;;;6.90;2.90;;;20.60;90.20;;;;;;5055905;28;20044;-66
2023/06/12 00:11:09;;;;;;;;;;;20.50;90.30;;;;;;5057737;28;20102;-67
2023/06/12 00:13:41;;;;;;;22.95;2.95;;;20.50;90.30;;;;;;5090142;28;19928;-66
2023/06/12 00:16:08;;;;;;;10.82;2.60;;;20.40;90.30;;;;;;5055756;28;20040;-67
2023/06/12 00:18:35;;;;;;;6.60;2.63;;;20.30;90.40;;;;;;5049042;28;20155;-67
2023/06/12 00:21:02;;;;;;;6.78;2.28;;;20.30;90.40;;;;;;5057802;28;20040;-67
2023/06/12 00:23:29;;;;;;;6.65;2.60;;;20.30;90.50;;;;;;5050330;28;20047;-66
2023/06/12 00:25:55;;;;;;;7.80;2.00;;;20.20;90.80;;;;;;5039805;28;20449;-67
2023/06/12 00:28:20;;;;;;;8.80;2.58;;;20.10;90.60;;;;;;5054957;28;20109;-67
2023/06/12 00:30:46;;;;;;;6.28;2.70;;;20.00;90.70;;;;;;5057767;28;20409;-66
2023/06/12 00:33:16;;;;;;;8.30;2.78;;;20.00;90.80;;;;;;5057250;28;20040;-67
2023/06/12 00:35:42;;;;;;;10.15;2.65;;;19.90;90.80;;;;;;5087270;28;20040;-66
2023/06/12 00:38:08;;;;;;;9.57;2.63;;;19.80;90.90;;;;;;5054454;28;20051;-66
2023/06/12 00:40:33;;;;;;;7.25;2.33;;;19.80;91.00;;;;;;5057008;28;20067;-67
2023/06/12 00:42:59;;;;;;;7.55;2.13;;;19.70;91.10;;;;;;5056241;28;20770;-66
2023/06/12 00:45:26;;;;;;;6.15;2.33;;;19.70;91.10;;;;;;5057990;28;20459;-66
2023/06/12 00:47:55;;;;;;;5.80;2.50;;;19.60;91.20;;;;;;5055139;28;20075;-67
2023/06/12 00:50:25;;;;;;;8.38;2.70;;;19.60;91.30;;;;;;5055771;28;20688;-66
2023/06/12 00:52:52;;;;;;;6.22;2.50;;;19.60;91.30;;;;;;5054971;28;20417;-66
2023/06/12 00:55:19;;;;;;;8.63;2.33;;;19.50;91.40;;;;;;5057122;28;20043;-66
2023/06/12 00:57:46;;;;;;;5.40;2.30;;;19.40;91.40;;;;;;5054259;28;20040;-66
2023/06/12 01:00:14;;;;;;;8.25;2.80;;;19.50;91.60;;;;;;5087990;28;20041;-66
2023/06/12 01:02:53;;;;;;;6.25;2.60;;;19.40;91.60;;;;;;5052891;28;20040;-67
2023/06/12 01:05:32;;;;;;;9.52;2.58;;;19.30;91.70;;;;;;5055152;28;20044;-66
2023/06/12 01:08:16;;;;;;;6.43;2.20;;;19.30;91.70;;;;;;5053746;28;20052;-66
2023/06/12 01:10:50;;;;;;;13.82;2.72;;;19.20;91.80;;;;;;5038273;28;20044;-66
2023/06/12 01:13:20;;;;;;;6.65;2.53;;;19.20;92.00;;;;;;5055407;28;20044;-66
2023/06/12 01:15:46;;;;;;;8.95;2.70;;;19.10;92.00;;;;;;5046548;28;20118;-66
2023/06/12 01:18:12;;;;;;;8.57;2.70;;;19.00;92.10;;;;;;5033126;28;20083;-66
2023/06/12 01:20:40;;;;;;;8.32;2.47;;;18.90;92.30;;;;;;5055758;28;20551;-66
2023/06/12 01:23:36;;;;;;;7.45;3.20;;;18.90;92.50;;;;;;5049348;28;20790;-66
2023/06/12 01:26:08;;;;;;;6.50;2.70;;;18.80;92.70;;;;;;5056086;28;20067;-66
2023/06/12 01:28:51;;;;;;;5.95;2.63;;;18.70;92.90;;;;;;5055854;28;20041;-66
2023/06/12 01:31:56;;;;;;;5.90;2.10;;;18.70;93.00;;;;;;5052475;28;20049;-66
2023/06/12 01:34:53;;;;;;;7.00;2.60;;;18.60;93.10;;;;;;5051747;28;20525;-66
2023/06/12 01:37:20;;;;;;;8.13;2.92;;;18.70;93.40;;;;;;5058952;28;20076;-66
2023/06/12 01:39:57;;;;;;;7.72;2.95;;;18.60;93.50;;;;;;5060701;28;20061;-66
2023/06/12 01:42:27;;;;;;;5.43;2.90;;;18.50;94.00;;;;;;5069280;28;20053;-67
2023/06/12 01:44:54;;;;;;;6.72;2.78;;;18.40;94.00;;;;;;5059164;28;20424;-66
2023/06/12 01:47:20;;;;;;;6.60;2.90;;;18.40;94.40;;;;;;5058646;28;20055;-66
2023/06/12 01:49:46;;;;;;;6.38;2.40;;;18.30;94.50;;;;;;5059199;28;20139;-66
2023/06/12 01:52:12;;;;;;;7.82;3.08;;;18.30;94.60;;;;;;5040504;28;20037;-65
2023/06/12 01:54:38;;;;;;;7.18;2.40;;;18.30;94.90;;;;;;5060023;28;20408;-66
2023/06/12 01:57:05;;;;;;;8.40;2.58;;;18.20;95.00;;;;;;5089976;28;20048;-66
2023/06/12 01:59:32;;;;;;;14.40;2.70;;;18.20;94.90;;;;;;5057210;28;20077;-66
2023/06/12 02:01:58;;;;;;;11.07;2.92;;;18.20;95.10;;;;;;5060318;28;20143;-66
2023/06/12 02:04:24;;;;;;;8.43;2.63;;;18.20;95.10;;;;;;5058832;28;20071;-66
2023/06/12 02:06:50;;;;;;;9.80;2.25;;;18.20;95.30;;;;;;5058273;28;20063;-66
2023/06/12 02:09:15;;;;;;;9.70;2.58;;;18.10;95.30;;;;;;5059359;28;20045;-66
2023/06/12 02:11:42;;;;;;;7.05;2.47;;;18.10;95.30;;;;;;5057745;28;20803;-66
2023/06/12 02:14:08;;;;;;;8.60;2.40;;;18.10;95.30;;;;;;5090950;28;20438;-66
2023/06/12 02:16:33;;;;;;;8.30;2.60;;;18.10;95.50;;;;;;5055915;28;20120;-66
2023/06/12 02:18:59;;;;;;;10.20;2.67;;;18.10;95.50;;;;;;5058388;28;20045;-66
2023/06/12 02:21:25;;;;;;;6.93;2.60;;;18.00;95.60;;;;;;5055221;28;20139;-66
2023/06/12 02:23:51;;;;;;;11.63;2.63;;;18.00;95.70;;;;;;5058978;28;20033;-66
2023/06/12 02:26:17;;;;;;;6.55;2.63;;;18.00;95.80;;;;;;5039193;28;20070;-66
2023/06/12 02:28:43;;;;;;;6.05;2.28;;;18.10;95.80;;;;;;5056792;28;20048;-66
2023/06/12 02:31:08;;;;;;;9.13;2.58;;;18.00;96.00;;;;;;5056696;28;20060;-66
2023/06/12 02:33:37;;;;;;;8.40;2.95;;;17.90;96.00;;;;;;5058703;28;20607;-66
2023/06/12 02:36:03;;;;;;;10.45;2.58;;;17.80;96.00;;;;;;5056106;28;20056;-66
2023/06/12 02:38:29;;;;;;;6.55;2.65;;;17.80;96.10;;;;;;5056720;28;20237;-66
2023/06/12 02:40:57;;;;;;;8.27;2.45;;;17.80;96.30;;;;;;5057904;28;20056;-66
2023/06/12 02:43:22;;;;;;;11.35;3.15;;;17.70;96.30;;;;;;5056376;28;20056;-66
2023/06/12 02:45:48;;;;;;;10.77;2.72;;;17.70;96.50;;;;;;5072710;28;20973;-66
2023/06/12 02:48:14;;;;;;;8.13;2.63;;;17.60;96.70;;;;;;5056512;28;20063;-66
2023/06/12 02:50:39;;;;;;;9.75;2.53;;;17.60;97.00;;;;;;5056348;28;20041;-66
2023/06/12 02:53:05;;;;;;;7.70;2.53;;;17.50;97.30;;;;;;5058822;28;20075;-66
2023/06/12 02:55:31;;;;;;;9.52;2.72;;;17.40;97.50;;;;;;5037412;28;20122;-67
2023/06/12 02:57:57;;;;;;;8.77;3.38;;;17.40;97.80;;;;;;5056425;28;20505;-66
2023/06/12 03:00:23;;;;;;;8.27;3.08;;;17.40;98.20;;;;;;5054679;28;20179;-66
2023/06/12 03:02:49;;;;;;;6.82;2.55;;;17.30;98.70;;;;;;5056248;28;20072;-66
2023/06/12 03:05:15;;;;;;;7.25;2.95;;;17.30;99.10;;;;;;5039706;28;20127;-66
2023/06/12 03:07:44;;;;;;;9.05;2.53;;;17.30;99.30;;;;;;5058170;28;20626;-66
2023/06/12 03:10:10;;;;;;;8.43;2.58;;;17.20;99.50;;;;;;5036257;28;20056;-66
2023/06/12 03:12:35;;;;;;;7.25;2.70;;;17.20;99.80;;;;;;5050260;28;20528;-66
2023/06/12 03:15:02;;;;;;;8.00;2.65;;;17.20;99.90;;;;;;5056274;28;20178;-66
2023/06/12 03:17:28;;;;;;;10.63;3.10;;;17.10;99.90;;;;;;5056989;28;20055;-66
2023/06/12 03:19:54;;;;;;;8.20;2.85;;;17.10;99.90;;;;;;5056593;28;20044;-66
2023/06/12 03:22:20;;;;;;;8.35;3.00;;;17.10;99.90;;;;;;5056874;28;20052;-66
2023/06/12 03:24:46;;;;;;;10.77;3.30;;;17.00;99.90;;;;;;5060059;28;20040;-66
2023/06/12 03:27:11;;;;;;;9.05;2.80;;;17.20;99.90;;;;;;5056332;28;20420;-66
2023/06/12 03:29:37;;;;;;;12.82;4.28;;;16.90;99.90;;;;;;5052190;28;20072;-66
2023/06/12 03:32:03;;;;;;;7.88;3.15;;;16.90;99.90;;;;;;5054175;28;20052;-66
2023/06/12 03:34:31;;;;;;;13.73;3.60;;;16.90;99.90;;;;;;5054473;28;20048;-65
2023/06/12 03:36:57;;;;;;;7.47;2.85;;;16.80;99.90;;;;;;5056452;28;20045;-65
2023/06/12 03:39:23;;;;;;;9.38;3.28;;;16.80;99.90;;;;;;5057315;28;20412;-66
2023/06/12 03:41:54;;;;;;;8.98;3.00;;;16.80;99.90;;;;;;5056433;28;20048;-65
2023/06/12 03:44:20;;;;;;;6.30;3.00;;;16.80;99.90;;;;;;5057074;28;20059;-66
2023/06/12 03:46:45;;;;;;;8.05;3.10;;;16.80;99.90;;;;;;5057949;28;20036;-65
2023/06/12 03:49:11;;;;;;;8.63;3.05;;;16.80;99.90;;;;;;5056610;28;20086;-66
2023/06/12 03:51:37;;;;;;;10.25;3.05;;;16.70;99.90;;;;;;5060718;28;20044;-66
2023/06/12 03:54:03;;;;;;;6.75;2.97;;;16.70;99.90;;;;;;5054057;28;20155;-67
2023/06/12 03:56:28;;;;;;;10.68;3.08;;;16.70;99.90;;;;;;5055095;28;20405;-66
2023/06/12 03:58:54;;;;;;;12.20;3.35;;;16.60;99.90;;;;;;5056795;28;20033;-66
2023/06/12 04:01:20;;;;;;;8.18;2.80;;;16.60;99.90;;;;;;5055252;28;20052;-66
2023/06/12 04:03:48;;;;;;;9.13;2.75;;;16.60;99.90;;;;;;5055685;28;20044;-65
2023/06/12 04:06:14;;;;;;;10.13;3.58;;;16.50;99.90;;;;;;5056509;28;20071;-66
2023/06/12 04:08:40;;;;;;;8.57;2.95;;;16.50;99.90;;;;;;5089387;28;20048;-66
2023/06/12 04:11:09;;;;;;;7.28;3.50;;;16.60;99.90;;;;;;5038392;28;20044;-66
2023/06/12 04:13:35;;;;;;;8.85;3.15;;;16.50;99.90;;;;;;5039494;28;20052;-66
2023/06/12 04:16:02;;;;;;;7.68;3.13;;;16.50;99.90;;;;;;5089624;28;20519;-67
2023/06/12 04:18:28;;;;;;;12.10;3.50;;;16.60;99.90;;;;;;5057416;28;20532;-66
2023/06/12 04:20:55;;;;;;;10.52;3.60;;;16.50;99.90;;;;;;5052756;28;20105;-67
2023/06/12 04:23:20;;;;;;;10.10;3.55;;;16.50;99.90;;;;;;5056962;28;20033;-66
2023/06/12 04:25:48;;;;;;;9.73;3.08;;;16.50;99.90;;;;;;5057475;28;20044;-66
2023/06/12 04:28:16;;;;;;;8.98;3.08;;;16.50;99.90;;;;;;5055950;28;20094;-66
2023/06/12 04:30:44;;;;;;;7.55;3.40;;;16.60;99.90;;;;;;5053512;28;20054;-66
2023/06/12 04:33:11;;;;;;;8.88;3.05;;;16.60;99.90;;;;;;5050034;28;20076;-66
2023/06/12 04:35:37;;;;;;;12.50;3.65;;;16.70;99.90;;;;;;5040155;28;20106;-66
2023/06/12 04:38:05;;;;;;;10.65;3.20;;;16.90;99.90;;;;;;5057122;28;20677;-66
2023/06/12 04:40:36;;;;;;;8.23;3.00;;;17.10;99.90;;;;;;5066459;28;20040;-66
2023/06/12 04:43:05;;;;;;;10.43;3.20;;;17.40;99.90;;;;;;5055207;28;20455;-66
2023/06/12 04:45:33;;;;;;;9.50;3.08;;;17.80;99.90;;;;;;5089261;28;20478;-66
2023/06/12 04:47:58;;;;;;;7.80;3.20;;;18.10;99.90;;;;;;5057423;28;20120;-66
2023/06/12 04:50:25;;;;;;;8.45;2.70;;;18.30;99.90;;;;;;5054478;28;20064;-66
2023/06/12 04:52:52;;;;;;;7.53;2.97;;;18.60;99.90;;;;;;5053037;28;20040;-66
2023/06/12 04:55:19;;;;;;;10.02;3.22;;;18.80;99.90;;;;;;5054874;28;20047;-66
2023/06/12 04:57:47;;;;;;;9.13;3.25;;;19.00;99.90;;;;;;5057482;28;20115;-66
2023/06/12 05:00:15;;;;;;;9.13;3.20;;;19.00;99.90;;;;;;5066084;28;20041;-67
2023/06/12 05:02:41;;;;;;;7.97;3.00;;;19.20;99.90;;;;;;5042011;28;21885;-66
2023/06/12 05:05:07;;;;;;;7.38;3.10;;;19.40;99.90;;;;;;5043232;28;20121;-66
2023/06/12 05:07:35;;;;;;;8.23;3.10;;;19.60;99.90;;;;;;5037051;28;20262;-66
2023/06/12 05:10:01;;;;;;;9.73;3.00;;;19.80;99.90;;;;;;5090813;28;20056;-66
2023/06/12 05:12:27;;;;;;;8.27;2.78;;;20.00;99.90;;;;;;5059404;28;20101;-67
2023/06/12 05:14:52;;;;;;;7.20;3.05;;;20.20;99.90;;;;;;5059457;28;20101;-66
2023/06/12 05:17:18;;;;;;;10.50;3.03;;;20.30;99.90;;;;;;5059712;28;20139;-66
2023/06/12 05:19:44;;;;;;;7.78;2.80;;;20.40;99.90;;;;;;5039941;28;20035;-67
2023/06/12 05:22:10;;;;;;;6.10;2.78;;;20.50;99.90;;;;;;5058378;28;20113;-66
2023/06/12 05:24:35;;;;;;;12.38;3.58;;;20.70;99.90;;;;;;5057044;28;20048;-66
2023/06/12 05:27:01;;;;;;;7.88;3.08;;;20.90;99.90;;;;;;5050357;28;20040;-66
2023/06/12 05:29:27;;;;;;;9.35;2.97;;;21.00;99.90;;;;;;5087548;28;20084;-66
2023/06/12 05:31:53;;;;;;;9.88;3.25;;;20.90;99.90;;;;;;5048240;28;20127;-66
2023/06/12 05:34:19;;;;;;;10.00;3.00;;;20.60;99.90;;;;;;5049808;28;20040;-66
2023/06/12 05:36:45;;;;;;;9.60;3.60;;;20.40;99.90;;;;;;5056130;28;20875;-66
2023/06/12 05:39:11;;;;;;;11.43;3.10;;;20.20;99.90;;;;;;5049571;28;20040;-66
2023/06/12 05:41:36;;;;;;;10.23;3.25;;;20.10;99.90;;;;;;5056721;28;20593;-66
2023/06/12 05:44:03;;;;;;;11.48;3.00;;;19.90;99.90;;;;;;5048720;28;20412;-68
2023/06/12 05:46:29;;;;;;;10.45;3.50;;;19.80;99.90;;;;;;5056130;28;20397;-66
2023/06/12 05:48:57;;;;;;;9.80;3.53;;;19.70;99.90;;;;;;5058338;28;20044;-65
2023/06/12 05:51:24;;;;;;;8.15;3.47;;;19.50;99.90;;;;;;5069179;28;20647;-66
2023/06/12 05:53:50;;;;;;;10.50;3.63;;;19.40;99.90;;;;;;5052778;28;20105;-66
2023/06/12 05:56:15;;;;;;;11.38;3.25;;;19.30;99.90;;;;;;5039166;28;20040;-66
2023/06/12 05:58:44;;;;;;;11.55;3.50;;;19.30;99.90;;;;;;5056228;28;20052;-66
2023/06/12 06:01:11;;;;;;;10.60;3.30;;;19.20;99.90;;;;;;5056903;28;20104;-66
2023/06/12 06:03:45;;;;;;;6.72;2.97;;;19.40;99.90;;;;;;5045468;28;20098;-66
2023/06/12 06:06:15;;;;;;;11.23;3.58;;;19.60;99.90;;;;;;5051683;28;20060;-72
2023/06/12 06:08:41;;;;;;;9.25;3.30;;;20.00;99.90;;;;;;5053030;28;20036;-72
2023/06/12 06:11:07;;;;;;;10.70;3.35;;;20.30;99.90;;;;;;5048965;28;20053;-72
2023/06/12 06:13:32;;;;;;;10.18;3.25;;;20.50;99.90;;;;;;5058081;28;20040;-72
2023/06/12 06:15:58;;;;;;;8.32;3.30;;;20.80;99.90;;;;;;5053317;28;20819;-72
2023/06/12 06:18:24;;;;;;;11.43;3.60;;;21.00;99.90;;;;;;5053535;28;20053;-72
2023/06/12 06:20:50;;;;;;;9.77;3.25;;;21.30;99.90;;;;;;5043037;28;20129;-72
2023/06/12 06:23:16;;;;;;;11.02;3.55;;;21.50;99.90;;;;;;5057630;28;20056;-72
2023/06/12 06:25:43;;;;;;;10.57;3.13;;;21.40;99.90;;;;;;5049351;28;20045;-72
2023/06/12 06:28:08;;;;;;;10.25;3.63;;;21.20;99.90;;;;;;5049417;28;20513;-72
2023/06/12 06:30:34;;;;;;;9.88;3.38;;;21.00;99.90;;;;;;5056176;28;20048;-73
2023/06/12 06:33:00;;;;;;;9.63;3.40;;;20.80;99.90;;;;;;5056277;28;20076;-72
2023/06/12 06:35:26;;;;;;;10.50;3.15;;;20.60;99.90;;;;;;5039017;28;20037;-73
2023/06/12 06:37:52;;;;;;;9.85;3.33;;;20.50;99.90;;;;;;5049437;28;20049;-74
2023/06/12 06:40:18;;;;;;;12.25;3.63;;;20.50;99.90;;;;;;5047880;28;20052;-73
2023/06/12 06:42:43;;;;;;;9.43;4.07;;;20.40;99.90;;;;;;5057162;28;20036;-72
2023/06/12 06:45:10;;;;;;;10.02;3.63;;;20.40;99.90;;;;;;5037880;28;20448;-72
2023/06/12 06:47:35;;;;;;;9.60;3.67;;;20.30;99.90;;;;;;5060233;28;20043;-72
2023/06/12 06:50:01;;;;;;;11.68;3.78;;;20.30;99.90;;;;;;5059852;28;20064;-72
2023/06/12 06:52:27;;;;;;;17.02;5.20;;;20.30;99.90;;;;;;5054425;28;20041;-73
2023/06/12 06:54:53;;;;;;;10.70;4.00;;;20.20;99.90;;;;;;5035626;28;20039;-72
2023/06/12 06:57:21;;;;;;;10.73;3.92;;;20.20;99.90;;;;;;5053303;28;20109;-72
2023/06/12 06:59:47;;;;;;;11.15;3.85;;;20.20;99.90;;;;;;5059485;28;20057;-72
2023/06/12 07:02:12;;;;;;;9.80;3.70;;;20.30;99.90;;;;;;5051960;28;20108;-72
2023/06/12 07:04:38;;;;;;;9.75;3.67;;;20.30;99.90;;;;;;5056818;28;20041;-72
2023/06/12 07:07:04;;;;;;;11.05;3.88;;;20.30;99.90;;;;;;5035385;28;20060;-73
2023/06/12 07:09:29;;;;;;;12.40;4.22;;;20.30;99.90;;;;;;5050843;28;20037;-73
2023/06/12 07:11:55;;;;;;;13.52;4.00;;;20.30;99.90;;;;;;5050035;28;20459;-73
2023/06/12 07:14:21;;;;;;;12.18;4.15;;;20.40;99.90;;;;;;5042124;28;20048;-72
2023/06/12 07:16:47;;;;;;;7.78;3.53;;;20.50;99.90;;;;;;5057753;28;20066;-73
2023/06/12 07:19:12;;;;;;;12.20;3.50;;;20.60;99.90;;;;;;5052546;28;20036;-72
2023/06/12 07:21:38;;;;;;;10.98;4.05;;;20.70;99.90;;;;;;5049349;28;20094;-73
2023/06/12 07:24:05;;;;;;;10.20;4.03;;;20.80;99.90;;;;;;5053884;28;20071;-72
2023/06/12 07:26:30;;;;;;;12.55;3.67;;;21.00;99.90;;;;;;5084638;28;20045;-73
2023/06/12 07:28:57;;;;;;;9.48;3.83;;;21.10;99.90;;;;;;5058245;28;20044;-73
2023/06/12 07:31:23;;;;;;;10.20;4.05;;;21.20;99.90;;;;;;5033893;28;20037;-73
2023/06/12 07:33:48;;;;;;;12.57;3.60;;;21.40;99.90;;;;;;5049375;28;20047;-73
2023/06/12 07:36:17;;;;;;;12.38;4.13;;;21.50;99.90;;;;;;5034628;28;20053;-74
2023/06/12 07:38:42;;;;;;;13.27;4.22;;;21.60;99.90;;;;;;5054512;28;20080;-73
2023/06/12 07:41:08;;;;;;;11.98;3.80;;;21.80;99.90;;;;;;5048074;28;20123;-72
2023/06/12 07:43:34;;;;;;;10.20;4.45;;;21.90;99.90;;;;;;5053429;28;20072;-73
2023/06/12 07:46:01;;;;;;;6.05;3.30;;;22.00;99.90;;;;;;5052098;28;20502;-72
2023/06/12 07:48:27;;;;;;;9.00;3.70;;;22.00;99.90;;;;;;5061762;28;20586;-73
2023/06/12 07:50:53;;;;;;;7.53;3.50;;;22.10;99.90;;;;;;5055639;28;20044;-73
2023/06/12 07:53:19;;;;;;;10.10;4.35;;;22.20;99.90;;;;;;5062099;28;20790;-73
2023/06/12 07:55:45;;;;;;;10.68;4.35;;;22.40;99.90;;;;;;5049817;28;20055;-73
2023/06/12 07:58:10;;;;;;;11.88;4.40;;;22.50;99.90;;;;;;5042148;28;20163;-72
2023/06/12 08:00:37;;;;;;;7.78;3.70;;;22.60;99.90;;;;;;5025178;28;20155;-73
2023/06/12 08:03:03;;;;;;;11.25;4.18;;;22.60;99.90;;;;;;5048658;28;20079;-67
2023/06/12 08:05:29;;;;;;;11.10;4.45;;;22.70;99.90;;;;;;5048406;28;20707;-67
2023/06/12 08:07:55;;;;;;;12.13;4.65;;;22.80;99.90;;;;;;5050666;28;21139;-67
2023/06/12 08:10:21;;;;;;;13.32;4.43;;;22.90;99.90;;;;;;5048158;28;20150;-67
2023/06/12 08:12:47;;;;;;;8.93;4.47;;;22.90;99.90;;;;;;5024622;28;20480;-67
2023/06/12 08:15:13;;;;;;;10.98;3.90;;;23.00;99.90;;;;;;5042050;28;20040;-67
2023/06/12 08:17:41;;;;;;;13.35;4.10;;;23.10;99.90;;;;;;5043781;28;20055;-67
2023/06/12 08:20:09;;;;;;;9.10;3.92;;;23.20;99.90;;;;;;5056414;28;20048;-68
2023/06/12 08:22:36;;;;;;;12.13;3.88;;;23.30;99.90;;;;;;5048621;28;20567;-67
2023/06/12 08:25:09;;;;;;;9.60;4.30;;;23.40;99.90;;;;;;5055543;28;20048;-67
2023/06/12 08:27:35;;;;;;;10.50;4.03;;;23.50;99.90;;;;;;5094870;27;20044;-67
2023/06/12 08:30:04;;;;;;;10.75;4.13;;;23.60;99.90;;;;;;5057442;28;20052;-67
2023/06/12 08:32:30;;;;;;;10.80;3.97;;;23.60;99.90;;;;;;5053977;28;20385;-67
2023/06/12 08:34:56;;;;;;;10.40;4.40;;;23.70;99.90;;;;;;5055441;28;20041;-67
2023/06/12 08:37:21;;;;;;;9.80;4.40;;;23.80;99.90;;;;;;5056163;28;20051;-67
2023/06/12 08:39:47;;;;;;;8.52;3.85;;;23.80;99.90;;;;;;5053691;28;20496;-67
2023/06/12 08:42:17;;;;;;;11.35;4.03;;;23.90;99.90;;;;;;5058115;28;20043;-67
2023/06/12 08:44:47;;;;;;;13.50;4.82;;;24.00;99.90;;;;;;5057336;28;20397;-67
2023/06/12 08:47:14;;;;;;;9.57;4.22;;;24.00;99.90;;;;;;5055308;28;20127;-68
2023/06/12 08:49:40;;;;;;;9.20;4.22;;;24.10;99.90;;;;;;5048942;28;20067;-67
2023/06/12 08:52:10;;;;;;;10.98;4.65;;;24.10;99.90;;;;;;5038040;28;20048;-67
2023/06/12 08:54:45;;;;;;;11.77;4.93;;;24.20;99.90;;;;;;5051587;28;20053;-67
2023/06/12 08:57:11;;;;;;;10.98;4.13;;;24.20;99.90;;;;;;5058347;28;20059;-67
2023/06/12 08:59:37;;;;;;;8.15;4.40;;;24.30;99.90;;;;;;5055522;28;20041;-68
2023/06/12 09:02:03;;;;;;;9.35;4.55;;;24.40;99.90;;;;;;5059924;28;20060;-67
2023/06/12 09:04:37;;;;;;;8.75;3.65;;;24.40;99.60;;;;;;5058626;28;20059;-67
2023/06/12 09:07:03;;;;;;;11.95;3.92;;;24.50;99.40;;;;;;5059655;28;20087;-67
2023/06/12 09:09:43;;;;;;;8.98;4.35;;;24.60;99.00;;;;;;5060055;28;20052;-67
2023/06/12 09:12:12;;;;;;;9.15;3.88;;;24.70;98.60;;;;;;5057472;28;20047;-67
2023/06/12 09:14:40;;;;;;;11.50;3.67;;;24.70;98.90;;;;;;5061037;28;20044;-67
2023/06/12 09:17:07;;;;;;;7.75;3.38;;;24.80;98.90;;;;;;5057574;28;20044;-67
2023/06/12 09:19:43;;;;;;;7.90;3.80;;;24.90;98.70;;;;;;5049366;28;20545;-68
2023/06/12 09:22:10;;;;;;;7.68;3.88;;;25.00;98.00;;;;;;5059205;28;20032;-68
2023/06/12 09:24:36;;;;;;;9.77;3.67;;;25.00;97.30;;;;;;5056927;28;20673;-67
2023/06/12 09:27:03;;;;;;;9.18;3.63;;;25.10;97.70;;;;;;5054733;28;20679;-67
2023/06/12 09:29:31;;;;;;;7.50;3.80;;;25.20;97.50;;;;;;5058070;28;20043;-68
2023/06/12 09:32:01;;;;;;;7.50;3.25;;;25.20;96.90;;;;;;5043533;28;20155;-68
2023/06/12 09:34:26;;;;;;;7.63;3.83;;;25.30;97.10;;;;;;5058555;28;20051;-68
2023/06/12 09:36:53;;;;;;;10.75;3.80;;;25.40;96.00;;;;;;5060870;28;20045;-68
2023/06/12 09:39:26;;;;;;;7.53;3.45;;;25.50;96.70;;;;;;5046466;28;20094;-68
2023/06/12 09:41:56;;;;;;;9.80;3.42;;;25.50;95.20;;;;;;5059984;28;20123;-68
2023/06/12 09:44:25;;;;;;;11.23;3.67;;;25.60;95.50;;;;;;5057676;28;20060;-69
2023/06/12 09:46:51;;;;;;;10.60;3.70;;;25.60;95.80;;;;;;5055692;28;20763;-68
2023/06/12 09:49:19;;;;;;;7.50;3.47;;;25.70;95.70;;;;;;5031415;28;20057;-68
2023/06/12 09:51:49;;;;;;;7.85;3.50;;;25.80;95.60;;;;;;5058591;28;20044;-67
2023/06/12 09:54:22;;;;;;;11.55;3.97;;;25.80;94.90;;;;;;5062860;28;20049;-68
2023/06/12 09:56:53;;;;;;;7.28;3.53;;;25.90;93.90;;;;;;5058915;28;20068;-68
2023/06/12 09:59:21;;;;;;;8.13;3.40;;;25.90;94.30;;;;;;5061649;28;20634;-68
2023/06/12 10:01:51;;;;;;;8.55;3.92;;;26.00;94.60;;;;;;5064036;28;20037;-68
2023/06/12 10:05:01;;;;;;;9.20;4.10;;;26.00;94.20;;;;;;5059311;28;20060;-69
2023/06/12 10:07:41;;;;;;;8.18;3.70;;;26.10;93.90;;;;;;5068308;28;20649;-69
2023/06/12 10:10:07;;;;;;;10.13;4.35;;;26.10;93.80;;;;;;5045071;28;20627;-68
2023/06/12 10:12:34;;;;;;;9.68;3.70;;;26.20;93.70;;;;;;5062868;28;20117;-69
2023/06/12 10:15:03;;;;;;;9.30;3.83;;;26.20;93.70;;;;;;5061731;28;20429;-69
2023/06/12 10:17:30;;;;;;;6.32;3.50;;;26.20;93.10;;;;;;5079181;28;20432;-69
2023/06/12 10:19:57;;;;;;;8.43;3.45;;;26.20;92.50;;;;;;5060313;28;20040;-69
2023/06/12 10:22:23;;;;;;;8.23;3.42;;;26.10;92.00;;;;;;5065147;28;20513;-69
2023/06/12 10:24:49;;;;;;;7.88;3.75;;;26.10;92.40;;;;;;5095397;28;20122;-69
2023/06/12 10:27:18;;;;;;;7.38;3.67;;;26.20;93.00;;;;;;5063861;28;20048;-69
2023/06/12 10:29:44;;;;;;;6.88;3.60;;;26.20;92.50;;;;;;5069909;28;20048;-69
2023/06/12 10:32:14;;;;;;;8.75;4.05;;;26.20;92.60;;;;;;5055427;28;20224;-69
2023/06/12 10:34:45;;;;;;;9.15;3.40;;;26.30;91.30;;;;;;5051681;28;20611;-68
2023/06/12 10:37:28;;;;;;;7.97;3.65;;;26.30;91.30;;;;;;5050029;28;20072;-68
2023/06/12 10:40:12;;;;;;;12.07;3.83;;;26.30;91.80;;;;;;5044960;28;20057;-68
2023/06/12 10:42:54;;;;;;;7.63;3.42;;;26.30;91.50;;;;;;5073054;28;20040;-68
2023/06/12 10:45:33;;;;;;;7.63;3.63;;;26.30;90.70;;;;;;5045152;28;20064;-69
2023/06/12 10:48:02;;;;;;;10.07;3.63;;;26.40;90.60;;;;;;5061868;28;20805;-69
2023/06/12 10:50:28;;;;;;;10.30;4.65;;;26.40;89.60;;;;;;5045789;28;20405;-68
2023/06/12 10:52:54;;;;;;;10.13;3.88;;;26.50;90.00;;;;;;5058808;28;20380;-69
2023/06/12 10:55:27;;;;;;;8.00;3.17;;;26.50;90.90;;;;;;5055608;28;20116;-69
2023/06/12 10:57:54;;;;;;;7.00;3.40;;;26.60;90.60;;;;;;5055637;28;20102;-70
2023/06/12 11:00:23;;;;;;;8.73;3.50;;;26.60;90.40;;;;;;5076356;28;20105;-69
2023/06/12 11:03:00;;;;;;;7.43;3.38;;;26.70;90.10;;;;;;5072923;28;20044;-68
2023/06/12 11:05:27;;;;;;;7.15;3.53;;;26.70;90.40;;;;;;5055277;28;20059;-68
2023/06/12 11:07:59;;;;;;;10.30;4.05;;;26.80;88.70;;;;;;5059265;28;20048;-68
2023/06/12 11:10:26;;;;;;;9.23;3.78;;;26.80;89.20;;;;;;5058008;28;20048;-69
2023/06/12 11:12:51;;;;;;;6.68;3.70;;;26.80;89.90;;;;;;5060512;28;20106;-68
2023/06/12 11:15:18;;;;;;;9.20;3.92;;;26.80;88.50;;;;;;5059024;28;20044;-68
2023/06/12 11:17:44;;;;;;;8.07;4.00;;;26.80;90.10;;;;;;5062408;28;20044;-69
2023/06/12 11:20:10;;;;;;;9.88;4.03;;;26.90;90.90;;;;;;5056519;28;21342;-68
2023/06/12 11:22:36;;;;;;;7.85;4.22;;;27.00;91.00;;;;;;5045294;28;20735;-68
2023/06/12 11:25:04;;;;;;;8.48;3.67;;;27.00;88.40;;;;;;5062765;28;20056;-69
2023/06/12 11:27:30;;;;;;;9.68;4.00;;;27.10;89.50;;;;;;5061577;28;20472;-69
2023/06/12 11:30:05;;;;;;;8.73;4.20;;;27.10;90.00;;;;;;5047404;28;20044;-68
2023/06/12 11:32:31;;;;;;;9.68;4.32;;;27.10;90.00;;;;;;5064387;28;20044;-67
2023/06/12 11:34:57;;;;;;;12.18;4.20;;;27.10;90.50;;;;;;5066240;28;20048;-69
2023/06/12 11:37:25;;;;;;;9.80;4.20;;;27.20;90.80;;;;;;5065258;28;20040;-69
2023/06/12 11:40:10;;;;;;;8.50;3.90;;;27.20;90.50;;;;;;5054237;28;20056;-68
2023/06/12 11:42:38;;;;;;;10.32;4.78;;;27.30;90.20;;;;;;5077094;28;20056;-69
2023/06/12 11:45:08;;;;;;;8.38;4.70;;;27.40;90.20;;;;;;5060632;28;20040;-68
2023/06/12 11:47:36;;;;;;;7.88;4.90;;;27.40;90.00;;;;;;5059615;28;20059;-69
2023/06/12 11:50:07;;;;;;;7.65;4.45;;;27.40;90.30;;;;;;5064789;28;20056;-68
2023/06/12 11:52:38;;;;;;;11.35;4.25;;;27.40;90.30;;;;;;5081618;28;20536;-69
2023/06/12 11:55:06;;;;;;;9.32;4.57;;;27.50;88.00;;;;;;5044723;28;20532;-69
2023/06/12 11:57:32;;;;;;;10.98;4.22;;;27.50;87.80;;;;;;5045497;28;20509;-69
2023/06/12 11:59:59;;;;;;;14.50;5.60;;;27.50;87.20;;;;;;5049315;28;20049;-69
2023/06/12 12:02:39;;;;;;;9.60;4.93;;;27.60;87.10;;;;;;5055202;28;20527;-69
2023/06/12 12:05:08;;;;;;;6.88;4.20;;;27.60;86.20;;;;;;5081958;28;20421;-69
2023/06/12 12:07:38;;;;;;;9.07;4.50;;;27.70;85.70;;;;;;5052918;28;20622;-69
2023/06/12 12:10:07;;;;;;;7.35;4.53;;;27.80;84.30;;;;;;5047634;28;20044;-68
2023/06/12 12:12:43;;;;;;;6.68;4.28;;;27.80;84.50;;;;;;5051709;28;20040;-68
2023/06/12 12:15:11;;;;;;;6.97;4.72;;;27.90;84.60;;;;;;5046565;28;20052;-68
2023/06/12 12:17:40;;;;;;;9.73;4.60;;;27.90;86.70;;;;;;5052108;28;20044;-68
2023/06/12 12:20:15;;;;;;;7.30;4.45;;;28.00;84.20;;;;;;5050579;28;20051;-69
2023/06/12 12:22:42;;;;;;;12.93;4.82;;;28.00;83.80;;;;;;5050466;28;20471;-69
2023/06/12 12:25:08;;;;;;;9.25;4.90;;;28.00;82.80;;;;;;5031916;28;20136;-68
2023/06/12 12:27:34;;;;;;;10.80;4.70;;;28.10;83.20;;;;;;5053369;28;20041;-69
2023/06/12 12:30:03;;;;;;;8.57;4.85;;;28.10;82.90;;;;;;5049189;28;20065;-70
2023/06/12 12:32:29;;;;;;;9.23;4.65;;;28.20;83.40;;;;;;5064257;28;20055;-70
2023/06/12 12:34:55;;;;;;;7.75;4.75;;;28.20;83.20;;;;;;5063488;28;20458;-69
2023/06/12 12:37:22;;;;;;;8.25;4.80;;;28.30;83.90;;;;;;5046643;28;20285;-69
2023/06/12 12:39:48;;;;;;;11.18;4.28;;;28.40;84.50;;;;;;5046833;28;20056;-69
2023/06/12 12:42:14;;;;;;;10.18;4.78;;;28.40;84.40;;;;;;5047559;28;20472;-68
2023/06/12 12:44:40;;;;;;;6.85;4.43;;;28.50;82.70;;;;;;5048523;28;20791;-68
2023/06/12 12:47:06;;;;;;;9.30;4.75;;;28.50;81.50;;;;;;5048732;28;20174;-68